Time;durP1;ratioP1;P1;durP2;ratioP2;P2;SDS_P1;SDS_P2;PMS_P1;PMS_P2;Temp;Humidity;BMP_temperature;BMP_pressure;BME280_temperature;BME280_humidity;BME280_pressure;Samples;Min_cycle;Max_cycle;Signal;HPM_P1;HPM_P2
2022/01/28 00:04:48;;;;;;;9.95;8.00;;;;;;;;;;5032451;28;20038;-77
2022/01/28 00:07:15;;;;;;;10.25;7.93;;;;;;;;;;5032107;28;20113;-77
2022/01/28 00:09:41;;;;;;;10.43;8.30;;;;;;;;;;5031124;28;20560;-78
2022/01/28 00:12:08;;;;;;;10.52;8.63;;;;;;;;;;5030502;28;20539;-77
2022/01/28 00:38:45;;;;;;;9.70;8.23;;;;;;;;;;5071815;28;20101;-77
2022/01/28 00:41:11;;;;;;;10.30;8.00;;;;;;;;;;5068398;28;20108;-77
2022/01/28 00:43:38;;;;;;;10.30;8.00;;;;;;;;;;5050248;28;20033;-77
2022/01/28 00:46:04;;;;;;;9.98;8.32;;;;;;;;;;5050559;28;20033;-77
2022/01/28 00:48:30;;;;;;;10.18;7.72;;;;;;;;;;5051633;28;20488;-77
2022/01/28 00:50:56;;;;;;;9.85;7.85;;;;;;;;;;5051223;28;20040;-77
2022/01/28 00:53:22;;;;;;;8.68;7.40;;;;;;;;;;5038059;28;20400;-77
2022/01/28 00:55:48;;;;;;;9.15;7.50;;;;;;;;;;5031154;28;20025;-77
2022/01/28 00:58:14;;;;;;;9.50;7.25;;;;;;;;;;4999907;28;1358326;-77
2022/01/28 01:00:41;;;;;;;9.10;7.30;;;;;;;;;;5052068;28;20028;-77
2022/01/28 01:03:07;;;;;;;10.35;7.38;;;;;;;;;;5052161;28;20032;-77
2022/01/28 01:05:34;;;;;;;9.85;7.82;;;;;;;;;;5052282;28;20029;-77
2022/01/28 01:08:01;;;;;;;9.07;7.18;;;;;;;;;;5050496;28;20033;-77
2022/01/28 01:10:28;;;;;;;9.25;7.50;;;;;;;;;;5052223;28;20508;-77
2022/01/28 01:12:54;;;;;;;11.68;7.75;;;;;;;;;;5051998;28;20037;-77
2022/01/28 01:15:24;;;;;;;9.00;6.88;;;;;;;;;;5050439;28;20029;-77
2022/01/28 01:21:00;;;;;;;8.48;7.20;;;;;;;;;;5032401;28;20029;-77
2022/01/28 01:23:25;;;;;;;8.68;7.25;;;;;;;;;;5032840;28;20453;-77
2022/01/28 01:25:56;;;;;;;10.57;7.43;;;;;;;;;;5032735;28;20032;-77
2022/01/28 01:28:28;;;;;;;8.98;7.30;;;;;;;;;;5031786;28;20025;-77
2022/01/28 01:30:56;;;;;;;8.43;7.18;;;;;;;;;;5070334;28;20040;-77
2022/01/28 01:33:22;;;;;;;10.55;7.25;;;;;;;;;;5072145;28;20059;-77
2022/01/28 01:35:48;;;;;;;9.68;7.13;;;;;;;;;;5071969;28;20404;-77
2022/01/28 01:38:15;;;;;;;9.00;7.03;;;;;;;;;;5070224;28;20103;-77
2022/01/28 01:40:52;;;;;;;9.27;7.00;;;;;;;;;;5071966;28;20024;-77
2022/01/28 01:46:04;;;;;;;10.17;7.20;;;;;;;;;;5031603;28;20447;-77
2022/01/28 01:54:00;;;;;;;8.73;6.78;;;;;;;;;;5047860;28;20098;-77
2022/01/28 01:56:26;;;;;;;9.23;6.93;;;;;;;;;;5053647;28;20438;-77
2022/01/28 01:58:53;;;;;;;8.45;6.60;;;;;;;;;;5054618;28;20072;-77
2022/01/28 02:01:19;;;;;;;7.40;6.30;;;;;;;;;;5059993;28;20052;-77
2022/01/28 02:03:45;;;;;;;7.20;6.13;;;;;;;;;;5075770;28;20043;-77
2022/01/28 02:06:11;;;;;;;7.95;6.45;;;;;;;;;;5074615;28;20025;-77
2022/01/28 02:08:37;;;;;;;8.43;6.50;;;;;;;;;;5074775;28;20032;-77
2022/01/28 02:11:04;;;;;;;8.15;6.47;;;;;;;;;;5070850;28;20059;-77
2022/01/28 02:13:31;;;;;;;7.28;5.70;;;;;;;;;;5041984;28;20029;-77
2022/01/28 02:15:58;;;;;;;8.07;6.57;;;;;;;;;;5049213;28;20013;-77
2022/01/28 02:18:24;;;;;;;6.32;5.30;;;;;;;;;;5034673;28;20033;-77
2022/01/28 02:20:53;;;;;;;7.70;5.97;;;;;;;;;;5043652;28;20021;-77
2022/01/28 02:23:21;;;;;;;6.93;5.55;;;;;;;;;;5052882;28;20035;-77
2022/01/28 02:25:47;;;;;;;7.38;5.68;;;;;;;;;;5054973;28;20523;-77
2022/01/28 02:28:17;;;;;;;7.43;5.68;;;;;;;;;;5053663;28;20454;-77
2022/01/28 02:30:43;;;;;;;7.75;5.50;;;;;;;;;;5033812;28;20029;-77
2022/01/28 02:33:13;;;;;;;7.97;5.70;;;;;;;;;;5036586;28;20500;-77
2022/01/28 02:35:41;;;;;;;6.53;5.18;;;;;;;;;;5074910;28;20104;-77
2022/01/28 02:38:07;;;;;;;6.72;5.18;;;;;;;;;;5073498;28;20024;-77
2022/01/28 02:40:34;;;;;;;7.00;5.18;;;;;;;;;;5073918;28;20077;-77
2022/01/28 02:43:49;;;;;;;7.07;5.32;;;;;;;;;;5056053;28;20484;-77
2022/01/28 02:45:52;;;;;;;5.78;5.05;;;;;;;;;;5050895;28;20412;-77
2022/01/28 02:48:21;;;;;;;6.15;5.05;;;;;;;;;;5032789;28;20029;-77
2022/01/28 02:53:24;;;;;;;5.88;4.93;;;;;;;;;;5044580;28;20040;-77
2022/01/28 02:55:57;;;;;;;5.97;4.72;;;;;;;;;;5054325;28;20017;-77
2022/01/28 02:58:25;;;;;;;6.82;4.65;;;;;;;;;;5052259;28;20060;-77
2022/01/28 03:00:52;;;;;;;5.47;4.60;;;;;;;;;;5052994;28;20032;-77
2022/01/28 03:03:19;;;;;;;7.93;5.00;;;;;;;;;;5053912;28;20399;-77
2022/01/28 03:05:45;;;;;;;5.43;4.45;;;;;;;;;;5052449;28;20407;-77
2022/01/28 03:08:12;;;;;;;6.32;5.05;;;;;;;;;;5052713;28;20122;-77
2022/01/28 03:11:01;;;;;;;4.63;4.15;;;;;;;;;;5053855;28;20055;-77
2022/01/28 03:16:15;;;;;;;5.70;4.22;;;;;;;;;;5053613;28;20033;-77
2022/01/28 03:18:55;;;;;;;6.05;4.70;;;;;;;;;;5053449;28;20017;-77
2022/01/28 03:23:57;;;;;;;5.20;4.50;;;;;;;;;;5033439;28;20500;-77
2022/01/28 03:26:25;;;;;;;6.05;4.60;;;;;;;;;;5033621;28;20123;-77
2022/01/28 03:28:52;;;;;;;4.50;4.10;;;;;;;;;;5033064;28;20038;-77
2022/01/28 03:31:18;;;;;;;5.57;3.78;;;;;;;;;;5033148;28;20231;-77
2022/01/28 03:33:44;;;;;;;4.88;3.90;;;;;;;;;;5031934;28;20029;-77
2022/01/28 03:36:12;;;;;;;5.55;4.20;;;;;;;;;;5031896;28;20028;-77
2022/01/28 03:38:38;;;;;;;5.00;3.90;;;;;;;;;;5051738;28;20504;-77
2022/01/28 03:41:05;;;;;;;5.57;4.22;;;;;;;;;;5071290;28;20538;-77
2022/01/28 03:43:31;;;;;;;5.88;4.32;;;;;;;;;;5053136;28;20025;-77
2022/01/28 03:45:58;;;;;;;4.80;3.97;;;;;;;;;;5053734;28;20028;-77
2022/01/28 03:48:24;;;;;;;4.95;4.00;;;;;;;;;;5053412;28;20020;-77
2022/01/28 03:50:51;;;;;;;6.68;4.22;;;;;;;;;;5053393;28;20032;-77
2022/01/28 03:53:18;;;;;;;5.57;4.18;;;;;;;;;;5042919;28;20033;-77
2022/01/28 03:55:45;;;;;;;5.22;4.35;;;;;;;;;;5033515;28;20040;-77
2022/01/28 03:58:11;;;;;;;5.03;4.32;;;;;;;;;;5041126;28;20041;-77
2022/01/28 04:00:37;;;;;;;4.55;3.70;;;;;;;;;;5052477;28;20021;-77
2022/01/28 04:03:12;;;;;;;4.95;4.10;;;;;;;;;;5052039;28;20104;-77
2022/01/28 04:13:45;;;;;;;5.28;4.05;;;;;;;;;;5053185;28;20574;-77
2022/01/28 04:18:46;;;;;;;5.30;3.85;;;;;;;;;;5052502;28;20025;-77
2022/01/28 04:21:13;;;;;;;5.97;4.55;;;;;;;;;;5035519;28;20029;-77
2022/01/28 04:23:39;;;;;;;5.22;4.10;;;;;;;;;;5032820;28;20025;-77
2022/01/28 04:26:05;;;;;;;6.78;4.38;;;;;;;;;;5032741;28;20460;-77
2022/01/28 04:28:31;;;;;;;4.88;4.30;;;;;;;;;;5032862;28;20461;-77
2022/01/28 04:30:57;;;;;;;6.75;4.50;;;;;;;;;;5032320;28;20036;-77
2022/01/28 04:33:24;;;;;;;5.10;4.28;;;;;;;;;;5032212;28;20029;-77
2022/01/28 04:35:53;;;;;;;5.13;4.35;;;;;;;;;;5031339;28;20026;-77
2022/01/28 04:43:34;;;;;;;5.25;4.57;;;;;;;;;;5059018;28;20488;-77
2022/01/28 04:48:40;;;;;;;5.47;4.65;;;;;;;;;;5072531;28;20041;-77
2022/01/28 05:07:30;;;;;;;6.28;5.00;;;;;;;;;;5052311;28;20500;-77
2022/01/28 05:16:10;;;;;;;6.40;5.10;;;;;;;;;;5052023;28;20126;-77
2022/01/28 05:29:03;;;;;;;5.32;4.78;;;;;;;;;;5032232;28;20037;-77
2022/01/28 05:31:30;;;;;;;5.43;4.38;;;;;;;;;;5034054;28;20029;-79
2022/01/28 05:33:56;;;;;;;5.30;4.60;;;;;;;;;;5036607;28;20382;-78
2022/01/28 05:36:22;;;;;;;6.75;4.82;;;;;;;;;;5035404;28;20052;-78
2022/01/28 05:38:49;;;;;;;6.65;4.50;;;;;;;;;;5034387;28;20049;-78
2022/01/28 05:41:15;;;;;;;5.50;4.40;;;;;;;;;;5034884;28;20029;-78
2022/01/28 05:43:41;;;;;;;6.30;4.60;;;;;;;;;;5035499;28;20497;-78
2022/01/28 05:46:08;;;;;;;5.50;4.00;;;;;;;;;;5035550;28;20025;-78
2022/01/28 05:48:34;;;;;;;5.32;4.25;;;;;;;;;;5055580;28;20488;-78
2022/01/28 05:51:00;;;;;;;6.25;4.72;;;;;;;;;;5055264;28;20447;-78
2022/01/28 05:53:26;;;;;;;5.20;3.95;;;;;;;;;;5043973;28;20021;-78
2022/01/28 05:55:53;;;;;;;4.88;4.20;;;;;;;;;;5036158;28;20400;-78
2022/01/28 05:58:19;;;;;;;8.38;4.72;;;;;;;;;;5035950;28;20037;-78
2022/01/28 06:00:45;;;;;;;5.70;3.42;;;;;;;;;;5035578;28;20089;-78
2022/01/28 06:03:11;;;;;;;8.40;4.65;;;;;;;;;;5034794;28;20022;-78
2022/01/28 06:05:38;;;;;;;5.13;3.95;;;;;;;;;;5035531;28;20381;-78
2022/01/28 06:08:04;;;;;;;6.18;4.32;;;;;;;;;;5035106;28;20048;-78
2022/01/28 06:10:30;;;;;;;5.28;3.78;;;;;;;;;;5035406;28;20026;-78
2022/01/28 06:12:56;;;;;;;5.38;4.30;;;;;;;;;;5034591;28;20053;-78
2022/01/28 06:15:22;;;;;;;7.82;4.35;;;;;;;;;;5035141;28;20030;-78
2022/01/28 06:17:48;;;;;;;8.27;4.50;;;;;;;;;;5033819;28;20063;-78
2022/01/28 06:20:19;;;;;;;8.40;4.00;;;;;;;;;;5049370;28;20033;-78
2022/01/28 06:22:45;;;;;;;6.93;4.18;;;;;;;;;;5054978;28;20025;-78
2022/01/28 06:25:15;;;;;;;4.78;3.65;;;;;;;;;;5053589;28;20412;-78
2022/01/28 06:27:42;;;;;;;5.53;3.60;;;;;;;;;;5054990;28;20115;-78
2022/01/28 06:30:09;;;;;;;5.38;3.83;;;;;;;;;;5054621;28;20064;-78
2022/01/28 06:32:35;;;;;;;6.45;4.32;;;;;;;;;;5054301;28;20096;-78
2022/01/28 06:35:07;;;;;;;7.28;4.20;;;;;;;;;;5054939;28;20040;-78
2022/01/28 06:37:34;;;;;;;6.47;3.83;;;;;;;;;;5054571;28;20075;-78
2022/01/28 06:40:00;;;;;;;6.68;3.70;;;;;;;;;;5053239;28;20025;-78
2022/01/28 06:42:26;;;;;;;5.38;3.55;;;;;;;;;;5040114;28;20029;-78
2022/01/28 06:44:52;;;;;;;4.78;3.50;;;;;;;;;;5034494;28;20408;-78
2022/01/28 06:47:18;;;;;;;4.32;3.50;;;;;;;;;;5034264;28;20021;-78
2022/01/28 06:49:44;;;;;;;8.43;4.18;;;;;;;;;;5034285;28;20025;-78
2022/01/28 06:52:10;;;;;;;5.82;3.40;;;;;;;;;;5055823;28;20492;-78
2022/01/28 06:54:37;;;;;;;5.10;3.60;;;;;;;;;;5052937;28;20040;-78
2022/01/28 06:57:03;;;;;;;4.60;3.15;;;;;;;;;;5054509;28;20453;-78
2022/01/28 06:59:29;;;;;;;4.35;3.05;;;;;;;;;;5053508;28;20076;-78
2022/01/28 07:01:55;;;;;;;5.35;3.40;;;;;;;;;;5053824;28;20488;-78
2022/01/28 07:04:21;;;;;;;4.35;3.03;;;;;;;;;;5053320;28;20025;-78
2022/01/28 07:06:47;;;;;;;4.40;3.20;;;;;;;;;;5054424;28;20025;-78
2022/01/28 07:09:15;;;;;;;4.07;3.20;;;;;;;;;;5054315;28;20025;-78
2022/01/28 07:11:43;;;;;;;4.28;3.35;;;;;;;;;;5053102;28;20056;-79
2022/01/28 07:14:09;;;;;;;5.80;3.22;;;;;;;;;;5053642;28;20021;-78
2022/01/28 07:16:36;;;;;;;5.20;3.20;;;;;;;;;;5053733;28;20040;-78
2022/01/28 07:19:03;;;;;;;5.80;3.42;;;;;;;;;;5054716;28;20025;-78
2022/01/28 07:21:29;;;;;;;4.13;3.22;;;;;;;;;;5035121;28;20029;-78
2022/01/28 07:23:55;;;;;;;5.07;2.75;;;;;;;;;;5047583;28;20024;-78
2022/01/28 07:26:21;;;;;;;5.55;3.03;;;;;;;;;;5073773;28;20048;-78
2022/01/28 07:28:49;;;;;;;3.90;3.05;;;;;;;;;;5072393;28;20024;-78
2022/01/28 07:31:17;;;;;;;4.93;3.08;;;;;;;;;;5073458;28;20043;-78
2022/01/28 07:33:44;;;;;;;6.20;3.20;;;;;;;;;;5065742;28;20032;-78
2022/01/28 07:36:10;;;;;;;9.52;3.40;;;;;;;;;;5053255;28;20078;-78
2022/01/28 07:38:36;;;;;;;9.95;3.50;;;;;;;;;;5050911;28;20037;-78
2022/01/28 07:41:02;;;;;;;4.03;3.20;;;;;;;;;;5052772;28;20032;-78
2022/01/28 07:43:28;;;;;;;5.40;2.83;;;;;;;;;;5052674;28;20059;-79
2022/01/28 07:45:54;;;;;;;4.72;3.33;;;;;;;;;;5053277;28;20481;-78
2022/01/28 07:48:21;;;;;;;4.00;2.72;;;;;;;;;;5053209;28;20450;-77
2022/01/28 07:50:47;;;;;;;8.93;3.22;;;;;;;;;;5050352;28;20410;-77
2022/01/28 07:53:16;;;;;;;8.02;3.55;;;;;;;;;;5041372;28;20024;-79
2022/01/28 07:55:43;;;;;;;6.63;3.50;;;;;;;;;;5049005;28;20040;-78
2022/01/28 07:58:09;;;;;;;11.73;3.92;;;;;;;;;;5071917;28;20415;-78
2022/01/28 08:00:35;;;;;;;6.90;3.75;;;;;;;;;;5073605;28;20104;-78
2022/01/28 08:03:01;;;;;;;5.85;3.35;;;;;;;;;;5038920;28;20030;-78
2022/01/28 08:05:27;;;;;;;6.82;3.47;;;;;;;;;;5047127;28;20577;-75
2022/01/28 08:07:53;;;;;;;5.80;3.30;;;;;;;;;;5052965;28;20074;-76
2022/01/28 08:10:20;;;;;;;16.40;5.15;;;;;;;;;;5050123;28;20633;-76
2022/01/28 08:12:47;;;;;;;6.72;3.40;;;;;;;;;;5048942;28;20393;-75
2022/01/28 08:15:14;;;;;;;6.47;3.70;;;;;;;;;;5050323;28;20060;-75
2022/01/28 08:17:40;;;;;;;8.60;4.15;;;;;;;;;;5050594;28;20154;-74
2022/01/28 08:20:06;;;;;;;10.50;3.97;;;;;;;;;;5043223;28;20029;-75
2022/01/28 08:22:34;;;;;;;6.32;4.10;;;;;;;;;;5039784;28;20033;-75
2022/01/28 08:25:00;;;;;;;5.65;3.95;;;;;;;;;;5040989;28;20032;-75
2022/01/28 08:27:26;;;;;;;9.18;3.70;;;;;;;;;;5032816;28;20026;-76
2022/01/28 08:29:52;;;;;;;10.18;3.83;;;;;;;;;;5052950;28;20499;-76
2022/01/28 08:32:18;;;;;;;6.53;3.80;;;;;;;;;;5052913;28;20025;-76
2022/01/28 08:34:44;;;;;;;8.18;3.65;;;;;;;;;;5032784;28;20412;-75
2022/01/28 08:37:10;;;;;;;8.48;3.85;;;;;;;;;;5045745;28;20021;-75
2022/01/28 08:39:36;;;;;;;5.18;4.00;;;;;;;;;;5041580;28;20025;-75
2022/01/28 08:42:02;;;;;;;5.90;3.47;;;;;;;;;;5052549;28;20427;-76
2022/01/28 08:44:28;;;;;;;6.88;3.72;;;;;;;;;;5043004;28;20025;-76
2022/01/28 08:46:55;;;;;;;7.55;4.15;;;;;;;;;;5034522;28;20078;-76
2022/01/28 08:49:21;;;;;;;10.05;4.00;;;;;;;;;;5033973;28;20032;-76
2022/01/28 08:51:48;;;;;;;5.70;3.75;;;;;;;;;;5051758;28;20036;-75
2022/01/28 08:54:15;;;;;;;8.85;4.20;;;;;;;;;;5037772;28;20040;-76
2022/01/28 08:56:41;;;;;;;5.85;3.72;;;;;;;;;;5041212;28;20500;-75
2022/01/28 08:59:07;;;;;;;6.75;3.78;;;;;;;;;;5052370;28;20493;-75
2022/01/28 09:01:33;;;;;;;10.57;3.72;;;;;;;;;;5050768;28;20029;-76
2022/01/28 09:03:59;;;;;;;6.47;4.03;;;;;;;;;;5041024;28;20022;-76
2022/01/28 09:06:25;;;;;;;8.18;3.88;;;;;;;;;;5045266;28;20056;-76
2022/01/28 09:08:55;;;;;;;6.18;3.60;;;;;;;;;;5035511;28;20040;-76
2022/01/28 09:13:47;;;;;;;8.90;4.00;;;;;;;;;;5048567;28;20033;-76
2022/01/28 09:16:14;;;;;;;9.45;4.53;;;;;;;;;;5054735;28;20025;-76
2022/01/28 09:18:40;;;;;;;6.20;3.88;;;;;;;;;;5037861;28;20738;-76
2022/01/28 09:21:06;;;;;;;6.38;3.75;;;;;;;;;;5039919;28;20022;-76
2022/01/28 09:23:32;;;;;;;7.85;3.88;;;;;;;;;;5037018;28;20030;-76
2022/01/28 09:25:58;;;;;;;8.60;4.22;;;;;;;;;;5035820;28;20034;-76
2022/01/28 09:28:24;;;;;;;9.10;4.03;;;;;;;;;;5035618;28;20030;-76
2022/01/28 09:30:52;;;;;;;6.65;3.63;;;;;;;;;;5044810;28;20415;-76
2022/01/28 09:33:18;;;;;;;9.02;3.83;;;;;;;;;;5052871;28;20033;-77
2022/01/28 09:35:44;;;;;;;6.97;4.03;;;;;;;;;;5044376;28;20037;-76
2022/01/28 09:38:10;;;;;;;6.47;4.03;;;;;;;;;;5050582;28;20435;-75
2022/01/28 09:40:37;;;;;;;7.78;3.75;;;;;;;;;;5054199;28;20021;-76
2022/01/28 09:43:05;;;;;;;6.68;3.97;;;;;;;;;;5053821;28;20032;-76
2022/01/28 09:45:32;;;;;;;5.22;3.35;;;;;;;;;;5045447;28;20112;-76
2022/01/28 09:47:58;;;;;;;6.68;3.83;;;;;;;;;;5035668;28;20029;-76
2022/01/28 09:50:26;;;;;;;10.38;3.78;;;;;;;;;;5052827;28;20021;-76
2022/01/28 09:52:53;;;;;;;10.65;3.75;;;;;;;;;;5039976;28;20037;-76
2022/01/28 09:55:20;;;;;;;6.57;3.53;;;;;;;;;;5035672;28;20025;-76
2022/01/28 09:57:47;;;;;;;8.15;3.78;;;;;;;;;;5053322;28;20072;-76
2022/01/28 10:00:13;;;;;;;7.75;3.95;;;;;;;;;;5055095;28;20468;-76
2022/01/28 10:02:51;;;;;;;7.05;4.00;;;;;;;;;;5048499;28;20025;-77
2022/01/28 10:05:19;;;;;;;14.27;4.32;;;;;;;;;;5061609;28;20052;-76
2022/01/28 10:08:04;;;;;;;4.55;3.47;;;;;;;;;;5042854;28;20104;-77
2022/01/28 10:10:47;;;;;;;9.18;3.90;;;;;;;;;;5055355;28;20033;-76
2022/01/28 10:13:34;;;;;;;6.75;3.60;;;;;;;;;;5038270;28;20468;-76
2022/01/28 10:16:08;;;;;;;6.88;3.60;;;;;;;;;;5054387;28;20578;-76
2022/01/28 10:18:47;;;;;;;5.97;3.60;;;;;;;;;;5055687;28;20029;-76
2022/01/28 10:21:33;;;;;;;8.27;3.85;;;;;;;;;;5048642;28;20502;-76
2022/01/28 10:24:08;;;;;;;5.53;3.78;;;;;;;;;;5042217;28;20123;-76
2022/01/28 10:26:42;;;;;;;6.85;3.50;;;;;;;;;;5055914;28;20400;-76
2022/01/28 10:29:16;;;;;;;6.55;3.55;;;;;;;;;;5056210;28;20408;-76
2022/01/28 10:31:45;;;;;;;9.25;3.65;;;;;;;;;;5053437;28;20308;-76
2022/01/28 10:34:12;;;;;;;5.55;3.65;;;;;;;;;;5054847;28;20031;-76
2022/01/28 10:36:38;;;;;;;5.95;3.50;;;;;;;;;;5052611;28;20021;-77
2022/01/28 10:39:05;;;;;;;6.03;3.10;;;;;;;;;;5073328;28;20028;-76
2022/01/28 10:41:31;;;;;;;6.53;3.42;;;;;;;;;;5067085;28;20025;-75
2022/01/28 10:43:58;;;;;;;5.47;3.40;;;;;;;;;;5054069;28;20100;-75
2022/01/28 10:46:25;;;;;;;7.07;3.08;;;;;;;;;;5041044;28;20425;-75
2022/01/28 10:48:51;;;;;;;7.38;3.45;;;;;;;;;;5049280;28;20029;-75
2022/01/28 10:51:21;;;;;;;5.20;3.70;;;;;;;;;;5054105;28;20028;-75
2022/01/28 10:54:06;;;;;;;11.13;3.63;;;;;;;;;;5051039;28;20132;-75
2022/01/28 10:56:51;;;;;;;7.40;3.55;;;;;;;;;;5053968;28;20037;-75
2022/01/28 10:59:18;;;;;;;4.90;3.30;;;;;;;;;;5052628;28;20045;-74
2022/01/28 11:01:45;;;;;;;5.70;2.92;;;;;;;;;;5053317;28;20017;-74
2022/01/28 11:04:12;;;;;;;5.15;3.15;;;;;;;;;;5053069;28;20021;-75
2022/01/28 11:06:38;;;;;;;6.03;3.33;;;;;;;;;;5051584;28;20139;-74
2022/01/28 11:09:04;;;;;;;7.60;2.85;;;;;;;;;;5052481;28;20039;-75
2022/01/28 11:11:31;;;;;;;6.82;3.28;;;;;;;;;;5066899;28;20033;-74
2022/01/28 11:13:58;;;;;;;6.45;3.47;;;;;;;;;;5035166;28;20029;-75
2022/01/28 11:16:28;;;;;;;6.38;2.90;;;;;;;;;;5039512;28;20061;-75
2022/01/28 11:18:55;;;;;;;5.78;3.03;;;;;;;;;;5032295;28;20021;-74
2022/01/28 11:21:29;;;;;;;6.40;3.22;;;;;;;;;;5047567;28;20108;-74
2022/01/28 11:24:09;;;;;;;6.60;3.03;;;;;;;;;;5044967;28;20021;-75
2022/01/28 11:26:50;;;;;;;4.78;2.83;;;;;;;;;;5053364;28;20517;-75
2022/01/28 11:29:26;;;;;;;9.45;2.97;;;;;;;;;;5051410;28;20373;-75
2022/01/28 11:31:57;;;;;;;3.53;2.67;;;;;;;;;;5051601;28;20052;-75
2022/01/28 11:34:23;;;;;;;6.93;3.22;;;;;;;;;;5047043;28;20119;-75
2022/01/28 11:36:49;;;;;;;5.35;3.05;;;;;;;;;;5048755;28;20033;-75
2022/01/28 11:39:20;;;;;;;7.43;3.25;;;;;;;;;;5051976;28;20032;-75
2022/01/28 11:42:06;;;;;;;6.03;2.92;;;;;;;;;;5058050;28;20471;-74
2022/01/28 11:44:43;;;;;;;4.65;2.80;;;;;;;;;;5052355;28;20036;-75
2022/01/28 11:47:11;;;;;;;12.18;3.50;;;;;;;;;;5031912;28;20048;-75
2022/01/28 11:50:07;;;;;;;9.00;3.45;;;;;;;;;;5041568;28;20227;-75
2022/01/28 11:52:44;;;;;;;5.75;2.63;;;;;;;;;;5045051;28;20048;-75
2022/01/28 11:55:16;;;;;;;5.97;3.35;;;;;;;;;;5052200;28;20061;-74
2022/01/28 11:58:02;;;;;;;12.10;3.10;;;;;;;;;;5053308;28;20565;-75
2022/01/28 12:00:33;;;;;;;6.60;2.85;;;;;;;;;;5052339;28;20112;-75
2022/01/28 12:02:59;;;;;;;6.50;2.72;;;;;;;;;;5053459;28;20150;-75
2022/01/28 12:05:26;;;;;;;9.52;3.08;;;;;;;;;;5053745;28;20078;-76
2022/01/28 12:07:54;;;;;;;6.97;2.90;;;;;;;;;;5053010;28;20025;-76
2022/01/28 12:10:21;;;;;;;5.63;2.63;;;;;;;;;;5053176;28;20036;-76
2022/01/28 12:12:57;;;;;;;5.05;3.15;;;;;;;;;;5052622;28;20032;-76
2022/01/28 12:15:25;;;;;;;5.70;2.72;;;;;;;;;;5052647;28;20048;-76
2022/01/28 12:17:52;;;;;;;7.43;2.50;;;;;;;;;;5051520;28;20028;-75
2022/01/28 12:20:19;;;;;;;4.57;2.75;;;;;;;;;;5052708;28;20048;-75
2022/01/28 12:23:00;;;;;;;5.20;2.90;;;;;;;;;;5052991;28;20479;-74
2022/01/28 12:25:36;;;;;;;5.68;2.70;;;;;;;;;;5052332;28;20024;-75
2022/01/28 12:28:25;;;;;;;4.35;2.33;;;;;;;;;;5050092;28;20043;-75
2022/01/28 12:30:51;;;;;;;5.32;2.50;;;;;;;;;;5052406;28;20496;-75
2022/01/28 12:33:22;;;;;;;7.07;2.60;;;;;;;;;;5052320;28;20377;-75
2022/01/28 12:35:51;;;;;;;4.03;2.40;;;;;;;;;;5051394;28;20033;-75
2022/01/28 12:38:24;;;;;;;4.93;2.63;;;;;;;;;;5052533;28;20094;-75
2022/01/28 12:40:53;;;;;;;;;;;;;;;;;;5053976;28;20404;-75
2022/01/28 12:43:28;;;;;;;3.70;2.20;;;;;;;;;;5052455;28;20391;-75
2022/01/28 12:45:58;;;;;;;4.38;2.55;;;;;;;;;;5052489;28;20029;-75
2022/01/28 12:48:25;;;;;;;4.05;1.98;;;;;;;;;;5050071;28;20057;-76
2022/01/28 12:50:52;;;;;;;5.20;2.58;;;;;;;;;;5052728;28;20060;-76
2022/01/28 12:53:35;;;;;;;5.60;2.55;;;;;;;;;;5049733;28;20021;-75
2022/01/28 12:56:02;;;;;;;5.67;2.53;;;;;;;;;;5038938;28;20068;-75
2022/01/28 12:58:32;;;;;;;7.30;2.70;;;;;;;;;;5031863;28;20053;-76
2022/01/28 13:01:05;;;;;;;6.75;2.90;;;;;;;;;;5047064;28;20107;-75
2022/01/28 13:03:36;;;;;;;7.18;2.47;;;;;;;;;;5052267;28;20029;-76
2022/01/28 13:06:23;;;;;;;6.65;2.30;;;;;;;;;;5051283;28;20041;-76
2022/01/28 13:08:52;;;;;;;7.47;2.35;;;;;;;;;;5052463;28;20392;-74
2022/01/28 13:11:18;;;;;;;3.88;2.05;;;;;;;;;;5051516;28;20129;-76
2022/01/28 13:13:52;;;;;;;4.47;2.20;;;;;;;;;;5050484;28;20032;-76
2022/01/28 13:16:18;;;;;;;;;;;;;;;;;;5052532;28;20029;-76
2022/01/28 13:18:59;;;;;;;5.88;2.42;;;;;;;;;;5053179;28;19909;-76
2022/01/28 13:21:26;;;;;;;2.67;2.20;;;;;;;;;;5044211;28;20022;-75
2022/01/28 13:24:12;;;;;;;5.40;2.55;;;;;;;;;;5048055;28;20057;-75
2022/01/28 13:26:55;;;;;;;8.18;2.80;;;;;;;;;;5051753;28;20476;-75
2022/01/28 13:29:36;;;;;;;4.63;2.33;;;;;;;;;;5052485;28;20112;-76
2022/01/28 13:32:03;;;;;;;6.50;2.42;;;;;;;;;;5051863;28;20029;-74
2022/01/28 13:34:45;;;;;;;7.05;2.58;;;;;;;;;;5051882;28;20033;-75
2022/01/28 13:37:11;;;;;;;5.82;2.00;;;;;;;;;;5051238;28;20033;-76
2022/01/28 13:39:41;;;;;;;5.57;2.00;;;;;;;;;;5052400;28;20045;-75
2022/01/28 13:42:09;;;;;;;3.30;2.17;;;;;;;;;;5049832;28;20079;-76
2022/01/28 13:44:38;;;;;;;4.78;1.92;;;;;;;;;;5051787;28;20087;-76
2022/01/28 13:47:04;;;;;;;4.35;1.90;;;;;;;;;;5052098;28;20056;-75
2022/01/28 13:49:35;;;;;;;8.57;2.05;;;;;;;;;;5052316;28;20436;-75
2022/01/28 13:52:23;;;;;;;4.30;1.80;;;;;;;;;;5052778;28;20107;-76
2022/01/28 13:54:50;;;;;;;5.03;2.20;;;;;;;;;;5039203;28;20026;-76
2022/01/28 13:57:16;;;;;;;5.20;2.17;;;;;;;;;;5055978;28;20044;-76
2022/01/28 13:59:42;;;;;;;5.05;1.95;;;;;;;;;;5053330;28;20044;-76
2022/01/28 14:02:15;;;;;;;5.57;2.08;;;;;;;;;;5054810;28;20024;-76
2022/01/28 14:04:46;;;;;;;4.43;2.00;;;;;;;;;;5055032;28;20036;-75
2022/01/28 14:07:20;;;;;;;2.45;1.83;;;;;;;;;;5056498;28;20111;-76
2022/01/28 14:09:46;;;;;;;5.05;2.08;;;;;;;;;;5055033;28;20020;-76
2022/01/28 14:12:22;;;;;;;3.35;2.00;;;;;;;;;;5054902;28;20033;-76
2022/01/28 14:14:49;;;;;;;2.78;2.03;;;;;;;;;;5053977;28;20052;-75
2022/01/28 14:17:15;;;;;;;5.40;2.03;;;;;;;;;;5054793;28;20024;-75
2022/01/28 14:19:43;;;;;;;3.67;2.03;;;;;;;;;;5055193;28;20021;-74
2022/01/28 14:22:13;;;;;;;2.25;1.67;;;;;;;;;;5053519;28;20085;-75
2022/01/28 14:24:40;;;;;;;6.03;2.00;;;;;;;;;;5055356;28;20028;-75
2022/01/28 14:27:14;;;;;;;2.30;1.70;;;;;;;;;;5055576;28;20035;-74
2022/01/28 14:29:53;;;;;;;2.25;1.67;;;;;;;;;;5055882;28;20029;-75
2022/01/28 14:32:21;;;;;;;4.03;1.77;;;;;;;;;;5053292;28;20033;-75
2022/01/28 14:34:48;;;;;;;7.20;1.58;;;;;;;;;;5052737;28;20029;-75
2022/01/28 14:37:15;;;;;;;10.20;2.45;;;;;;;;;;5055020;28;20084;-75
2022/01/28 14:39:41;;;;;;;5.38;2.00;;;;;;;;;;5055087;28;20119;-75
2022/01/28 14:42:09;;;;;;;4.05;1.88;;;;;;;;;;5054599;28;20036;-75
2022/01/28 14:44:37;;;;;;;3.70;1.95;;;;;;;;;;5052912;28;20024;-74
2022/01/28 14:47:04;;;;;;;5.03;1.70;;;;;;;;;;5053514;28;20070;-74
2022/01/28 14:49:30;;;;;;;3.45;1.85;;;;;;;;;;5052301;28;20485;-75
2022/01/28 14:52:00;;;;;;;4.68;1.80;;;;;;;;;;5054172;28;20086;-75
2022/01/28 14:54:26;;;;;;;3.38;1.63;;;;;;;;;;5054081;28;20100;-75
2022/01/28 14:56:54;;;;;;;3.17;1.50;;;;;;;;;;5055273;28;20052;-75
2022/01/28 14:59:20;;;;;;;1.73;1.35;;;;;;;;;;5054924;28;20525;-75
2022/01/28 15:01:46;;;;;;;3.38;1.77;;;;;;;;;;5054810;28;20025;-75
2022/01/28 15:04:12;;;;;;;2.90;1.60;;;;;;;;;;5052864;28;20464;-74
2022/01/28 15:06:39;;;;;;;4.22;1.67;;;;;;;;;;5054107;28;20040;-74
2022/01/28 15:09:05;;;;;;;2.60;1.52;;;;;;;;;;5049542;28;20021;-74
2022/01/28 15:11:43;;;;;;;2.22;1.58;;;;;;;;;;5048263;28;20029;-73
2022/01/28 15:14:10;;;;;;;2.47;1.73;;;;;;;;;;5053717;28;20035;-74
2022/01/28 15:16:36;;;;;;;2.63;1.38;;;;;;;;;;5051737;28;20021;-73
2022/01/28 15:19:02;;;;;;;5.93;1.58;;;;;;;;;;5052806;28;20117;-73
2022/01/28 15:21:28;;;;;;;3.13;1.75;;;;;;;;;;5050195;28;20040;-73
2022/01/28 15:23:54;;;;;;;2.30;1.50;;;;;;;;;;5052041;28;20025;-73
2022/01/28 15:26:21;;;;;;;3.40;1.52;;;;;;;;;;5052950;28;20039;-74
2022/01/28 15:29:10;;;;;;;2.60;1.58;;;;;;;;;;5054010;28;20043;-74
2022/01/28 15:36:54;;;;;;;4.25;1.70;;;;;;;;;;5053636;28;20102;-78
2022/01/28 15:39:20;;;;;;;3.20;1.55;;;;;;;;;;5053592;28;20472;-74
2022/01/28 15:41:46;;;;;;;4.07;1.88;;;;;;;;;;5053036;28;20025;-74
2022/01/28 15:44:12;;;;;;;10.57;2.03;;;;;;;;;;5054212;28;20075;-74
2022/01/28 15:46:39;;;;;;;5.72;1.80;;;;;;;;;;5053752;28;20029;-75
2022/01/28 15:49:08;;;;;;;4.13;1.83;;;;;;;;;;5054287;28;20094;-74
2022/01/28 15:51:35;;;;;;;2.80;1.60;;;;;;;;;;5053629;28;20029;-74
2022/01/28 15:54:01;;;;;;;2.30;1.60;;;;;;;;;;5051878;28;20079;-74
2022/01/28 15:56:27;;;;;;;3.60;2.08;;;;;;;;;;5053491;28;20385;-75
2022/01/28 15:58:54;;;;;;;4.22;1.90;;;;;;;;;;5053606;28;20095;-75
2022/01/28 16:01:22;;;;;;;3.25;1.95;;;;;;;;;;5053820;28;20025;-75
2022/01/28 16:03:49;;;;;;;6.03;2.10;;;;;;;;;;5055646;28;20112;-75
2022/01/28 16:06:15;;;;;;;3.80;1.50;;;;;;;;;;5052415;28;20032;-75
2022/01/28 16:08:42;;;;;;;4.95;2.30;;;;;;;;;;5051685;28;20048;-75
2022/01/28 16:18:35;;;;;;;3.20;1.88;;;;;;;;;;5052328;28;20048;-75
2022/01/28 16:21:02;;;;;;;3.42;2.25;;;;;;;;;;5051924;28;20400;-75
2022/01/28 16:23:28;;;;;;;3.15;1.58;;;;;;;;;;5052589;28;20045;-75
2022/01/28 16:25:55;;;;;;;2.47;1.63;;;;;;;;;;5052714;28;20029;-75
2022/01/28 16:28:21;;;;;;;3.45;1.77;;;;;;;;;;5051965;28;20332;-75
2022/01/28 16:30:53;;;;;;;4.07;1.80;;;;;;;;;;5051878;28;20108;-75
2022/01/28 16:33:20;;;;;;;4.20;1.98;;;;;;;;;;5051130;28;20021;-74
2022/01/28 16:35:46;;;;;;;2.45;1.70;;;;;;;;;;5053193;28;20025;-74
2022/01/28 16:38:12;;;;;;;4.65;1.95;;;;;;;;;;5052970;28;20017;-74
2022/01/28 16:40:40;;;;;;;4.60;2.47;;;;;;;;;;5052786;28;20048;-74
2022/01/28 16:43:08;;;;;;;6.70;2.42;;;;;;;;;;5034701;28;20649;-74
2022/01/28 16:45:34;;;;;;;4.53;2.45;;;;;;;;;;5032010;28;20052;-74